sensor_id;sensor_type;location;lat;lon;timestamp;pressure;altitude;pressure_sealevel;temperature;humidity
6389;BME280;3227;42.654;23.360;2022-08-03T00:00:53;94488.69;;;22.40;58.04
6389;BME280;3227;42.654;23.360;2022-08-03T00:03:20;94487.06;;;22.37;57.69
6389;BME280;3227;42.654;23.360;2022-08-03T00:05:47;94489.88;;;22.33;58.42
6389;BME280;3227;42.654;23.360;2022-08-03T00:08:15;94489.25;;;22.28;58.66
6389;BME280;3227;42.654;23.360;2022-08-03T00:10:42;94486.69;;;22.26;59.45
6389;BME280;3227;42.654;23.360;2022-08-03T00:13:09;94486.09;;;22.21;58.83
6389;BME280;3227;42.654;23.360;2022-08-03T00:15:37;94484.44;;;22.19;59.23
6389;BME280;3227;42.654;23.360;2022-08-03T00:18:05;94481.22;;;22.14;59.08
6389;BME280;3227;42.654;23.360;2022-08-03T00:20:32;94455.28;;;21.90;59.23
6389;BME280;3227;42.654;23.360;2022-08-03T00:22:58;94470.53;;;21.99;59.78
6389;BME280;3227;42.654;23.360;2022-08-03T00:25:32;94475.63;;;22.02;59.75
6389;BME280;3227;42.654;23.360;2022-08-03T00:27:59;94480.91;;;22.01;59.65
6389;BME280;3227;42.654;23.360;2022-08-03T00:30:26;94483.66;;;21.98;59.71
6389;BME280;3227;42.654;23.360;2022-08-03T00:32:53;94481.91;;;21.98;60.32
6389;BME280;3227;42.654;23.360;2022-08-03T00:35:20;94470.78;;;21.93;59.92
6389;BME280;3227;42.654;23.360;2022-08-03T00:37:46;94480.91;;;22.01;59.79
6389;BME280;3227;42.654;23.360;2022-08-03T00:40:14;94480.06;;;22.00;59.74
6389;BME280;3227;42.654;23.360;2022-08-03T00:42:50;94478.22;;;22.02;59.42
6389;BME280;3227;42.654;23.360;2022-08-03T00:45:18;94480.22;;;21.97;59.33
6389;BME280;3227;42.654;23.360;2022-08-03T00:47:46;94476.78;;;21.95;59.12
6389;BME280;3227;42.654;23.360;2022-08-03T00:50:12;94446.91;;;21.63;59.22
6389;BME280;3227;42.654;23.360;2022-08-03T00:52:40;94482.53;;;21.83;60.30
6389;BME280;3227;42.654;23.360;2022-08-03T00:55:07;94486.00;;;21.84;61.22
6389;BME280;3227;42.654;23.360;2022-08-03T00:57:35;94479.88;;;21.85;60.98
6389;BME280;3227;42.654;23.360;2022-08-03T01:00:05;94474.72;;;21.83;60.86
6389;BME280;3227;42.654;23.360;2022-08-03T01:02:32;94473.78;;;21.84;60.24
6389;BME280;3227;42.654;23.360;2022-08-03T01:04:59;94473.94;;;21.81;59.88
6389;BME280;3227;42.654;23.360;2022-08-03T01:07:36;94471.94;;;21.68;60.54
6389;BME280;3227;42.654;23.360;2022-08-03T01:10:13;94475.38;;;21.68;60.76
6389;BME280;3227;42.654;23.360;2022-08-03T01:12:47;94463.59;;;21.59;61.14
6389;BME280;3227;42.654;23.360;2022-08-03T01:15:23;94466.53;;;21.52;62.07
6389;BME280;3227;42.654;23.360;2022-08-03T01:17:56;94463.25;;;21.48;62.39
6389;BME280;3227;42.654;23.360;2022-08-03T01:20:30;94468.34;;;21.50;62.25
6389;BME280;3227;42.654;23.360;2022-08-03T01:26:05;94436.19;;;21.31;61.91
6389;BME280;3227;42.654;23.360;2022-08-03T01:28:55;94453.25;;;21.38;62.32
6389;BME280;3227;42.654;23.360;2022-08-03T01:31:28;94458.09;;;21.47;62.80
6389;BME280;3227;42.654;23.360;2022-08-03T01:34:00;94458.88;;;21.49;62.58
6389;BME280;3227;42.654;23.360;2022-08-03T01:36:32;94464.00;;;21.50;62.30
6389;BME280;3227;42.654;23.360;2022-08-03T01:39:02;94465.13;;;21.45;62.04
6389;BME280;3227;42.654;23.360;2022-08-03T01:41:37;94466.94;;;21.43;62.78
6389;BME280;3227;42.654;23.360;2022-08-03T01:44:08;94471.44;;;21.39;63.43
6389;BME280;3227;42.654;23.360;2022-08-03T01:46:37;94483.16;;;21.29;63.48
6389;BME280;3227;42.654;23.360;2022-08-03T01:49:06;94479.78;;;21.27;63.48
6389;BME280;3227;42.654;23.360;2022-08-03T01:51:36;94474.50;;;21.29;63.12
6389;BME280;3227;42.654;23.360;2022-08-03T01:54:04;94468.84;;;21.39;63.21
6389;BME280;3227;42.654;23.360;2022-08-03T01:56:35;94472.94;;;21.45;63.23
6389;BME280;3227;42.654;23.360;2022-08-03T01:59:04;94483.31;;;21.46;62.69
6389;BME280;3227;42.654;23.360;2022-08-03T02:01:35;94472.25;;;21.41;63.01
6389;BME280;3227;42.654;23.360;2022-08-03T02:04:04;94473.00;;;21.43;63.07
6389;BME280;3227;42.654;23.360;2022-08-03T02:06:33;94472.94;;;21.45;62.31
6389;BME280;3227;42.654;23.360;2022-08-03T02:09:01;94478.16;;;21.45;62.72
6389;BME280;3227;42.654;23.360;2022-08-03T02:11:30;94475.59;;;21.43;62.85
6389;BME280;3227;42.654;23.360;2022-08-03T02:14:00;94471.44;;;21.39;63.17
6389;BME280;3227;42.654;23.360;2022-08-03T02:16:30;94472.09;;;21.24;63.56
6389;BME280;3227;42.654;23.360;2022-08-03T02:19:01;94474.78;;;21.22;63.88
6389;BME280;3227;42.654;23.360;2022-08-03T02:21:31;94473.31;;;21.15;63.77
6389;BME280;3227;42.654;23.360;2022-08-03T02:23:59;94467.41;;;21.10;63.47
6389;BME280;3227;42.654;23.360;2022-08-03T02:26:28;94431.97;;;20.86;63.69
6389;BME280;3227;42.654;23.360;2022-08-03T02:28:57;94464.34;;;21.01;64.17
6389;BME280;3227;42.654;23.360;2022-08-03T02:31:28;94461.28;;;20.91;64.88
6389;BME280;3227;42.654;23.360;2022-08-03T02:34:00;94463.97;;;20.89;65.31
6389;BME280;3227;42.654;23.360;2022-08-03T02:36:31;94408.84;;;20.58;64.83
6389;BME280;3227;42.654;23.360;2022-08-03T02:38:59;94461.41;;;20.88;64.33
6389;BME280;3227;42.654;23.360;2022-08-03T02:41:31;94468.78;;;20.99;63.42
6389;BME280;3227;42.654;23.360;2022-08-03T02:44:04;94463.63;;;20.97;63.08
6389;BME280;3227;42.654;23.360;2022-08-03T02:46:36;94469.38;;;21.05;63.19
6389;BME280;3227;42.654;23.360;2022-08-03T02:49:03;94466.03;;;21.02;62.87
6389;BME280;3227;42.654;23.360;2022-08-03T02:51:34;94465.34;;;20.98;62.83
6389;BME280;3227;42.654;23.360;2022-08-03T02:54:03;94471.56;;;20.94;63.59
6389;BME280;3227;42.654;23.360;2022-08-03T02:56:31;94459.81;;;20.84;63.69
6389;BME280;3227;42.654;23.360;2022-08-03T02:58:59;94463.22;;;20.86;63.74
6389;BME280;3227;42.654;23.360;2022-08-03T03:01:28;94474.38;;;20.89;63.48
6389;BME280;3227;42.654;23.360;2022-08-03T03:03:56;94478.13;;;20.82;63.64
6389;BME280;3227;42.654;23.360;2022-08-03T03:06:24;94460.50;;;20.67;63.83
6389;BME280;3227;42.654;23.360;2022-08-03T03:08:53;94476.75;;;20.74;63.76
6389;BME280;3227;42.654;23.360;2022-08-03T03:11:22;94476.50;;;20.80;63.97
6389;BME280;3227;42.654;23.360;2022-08-03T03:13:51;94480.75;;;20.82;64.14
6389;BME280;3227;42.654;23.360;2022-08-03T03:16:19;94492.13;;;20.80;63.61
6389;BME280;3227;42.654;23.360;2022-08-03T03:18:47;94481.22;;;20.70;63.57
6389;BME280;3227;42.654;23.360;2022-08-03T03:21:17;94493.88;;;20.79;63.72
6389;BME280;3227;42.654;23.360;2022-08-03T03:23:45;94492.97;;;20.80;62.99
6389;BME280;3227;42.654;23.360;2022-08-03T03:26:14;94491.59;;;20.72;63.42
6389;BME280;3227;42.654;23.360;2022-08-03T03:28:41;94461.25;;;20.49;63.44
6389;BME280;3227;42.654;23.360;2022-08-03T03:31:09;94502.84;;;20.72;63.79
6389;BME280;3227;42.654;23.360;2022-08-03T03:33:36;94499.03;;;20.81;64.33
6389;BME280;3227;42.654;23.360;2022-08-03T03:36:04;94500.56;;;21.29;63.28
6389;BME280;3227;42.654;23.360;2022-08-03T03:38:32;94504.34;;;21.82;61.23
6389;BME280;3227;42.654;23.360;2022-08-03T03:40:59;94497.44;;;22.20;59.35
6389;BME280;3227;42.654;23.360;2022-08-03T03:43:27;94500.53;;;22.28;59.23
6389;BME280;3227;42.654;23.360;2022-08-03T03:45:56;94503.78;;;22.52;58.81
6389;BME280;3227;42.654;23.360;2022-08-03T03:48:23;94511.16;;;23.16;56.22
6389;BME280;3227;42.654;23.360;2022-08-03T03:50:51;94515.88;;;23.96;54.08
6389;BME280;3227;42.654;23.360;2022-08-03T03:53:18;94501.66;;;24.50;51.93
6389;BME280;3227;42.654;23.360;2022-08-03T03:55:45;94505.59;;;25.35;49.77
6389;BME280;3227;42.654;23.360;2022-08-03T03:58:12;94504.69;;;25.95;46.86
6389;BME280;3227;42.654;23.360;2022-08-03T04:00:41;94518.69;;;26.52;45.29
6389;BME280;3227;42.654;23.360;2022-08-03T04:03:09;94519.47;;;27.09;44.44
6389;BME280;3227;42.654;23.360;2022-08-03T04:05:36;94520.94;;;27.67;42.92
6389;BME280;3227;42.654;23.360;2022-08-03T04:08:21;94513.00;;;28.32;41.38
6389;BME280;3227;42.654;23.360;2022-08-03T04:11:21;94516.94;;;28.88;39.19
6389;BME280;3227;42.654;23.360;2022-08-03T04:13:50;94506.03;;;29.05;38.89
6389;BME280;3227;42.654;23.360;2022-08-03T04:16:24;94510.88;;;29.35;39.09
6389;BME280;3227;42.654;23.360;2022-08-03T04:18:57;94517.75;;;29.73;38.43
6389;BME280;3227;42.654;23.360;2022-08-03T04:21:24;94512.34;;;30.09;37.47
6389;BME280;3227;42.654;23.360;2022-08-03T04:23:58;94516.03;;;30.53;36.30
6389;BME280;3227;42.654;23.360;2022-08-03T04:26:29;94517.94;;;30.95;35.51
6389;BME280;3227;42.654;23.360;2022-08-03T04:28:57;94516.56;;;31.23;34.54
6389;BME280;3227;42.654;23.360;2022-08-03T04:31:26;94513.22;;;31.64;34.31
6389;BME280;3227;42.654;23.360;2022-08-03T04:33:54;94519.50;;;31.84;33.66
6389;BME280;3227;42.654;23.360;2022-08-03T04:36:24;94521.06;;;32.07;32.96
6389;BME280;3227;42.654;23.360;2022-08-03T04:39:04;94506.94;;;32.18;32.99
6389;BME280;3227;42.654;23.360;2022-08-03T04:41:33;94527.38;;;32.58;32.55
6389;BME280;3227;42.654;23.360;2022-08-03T04:44:03;94530.69;;;32.71;31.67
6389;BME280;3227;42.654;23.360;2022-08-03T04:46:35;94503.50;;;32.58;31.74
6389;BME280;3227;42.654;23.360;2022-08-03T04:49:03;94531.00;;;32.77;31.35
6389;BME280;3227;42.654;23.360;2022-08-03T04:51:31;94543.69;;;32.74;31.89
6389;BME280;3227;42.654;23.360;2022-08-03T04:53:59;94539.47;;;32.71;32.13
6389;BME280;3227;42.654;23.360;2022-08-03T04:56:26;94539.50;;;32.50;31.91
6389;BME280;3227;42.654;23.360;2022-08-03T04:58:53;94542.59;;;32.14;32.97
6389;BME280;3227;42.654;23.360;2022-08-03T05:01:19;94547.44;;;32.20;32.97
6389;BME280;3227;42.654;23.360;2022-08-03T05:03:48;94544.50;;;31.70;32.92
6389;BME280;3227;42.654;23.360;2022-08-03T05:06:15;94543.53;;;30.73;34.35
6389;BME280;3227;42.654;23.360;2022-08-03T05:08:42;94545.75;;;30.10;35.83
6389;BME280;3227;42.654;23.360;2022-08-03T05:11:09;94555.97;;;29.80;36.22
6389;BME280;3227;42.654;23.360;2022-08-03T05:13:36;94554.63;;;29.50;36.78
6389;BME280;3227;42.654;23.360;2022-08-03T05:16:08;94557.22;;;29.39;37.48
6389;BME280;3227;42.654;23.360;2022-08-03T05:18:34;94561.31;;;29.43;37.41
6389;BME280;3227;42.654;23.360;2022-08-03T05:21:03;94554.31;;;29.55;37.30
6389;BME280;3227;42.654;23.360;2022-08-03T05:23:30;94564.28;;;29.63;37.36
6389;BME280;3227;42.654;23.360;2022-08-03T05:25:57;94562.13;;;29.20;37.81
6389;BME280;3227;42.654;23.360;2022-08-03T05:28:24;94561.34;;;28.94;39.02
6389;BME280;3227;42.654;23.360;2022-08-03T05:30:50;94563.78;;;28.97;39.56
6389;BME280;3227;42.654;23.360;2022-08-03T05:33:17;94575.88;;;29.12;39.03
6389;BME280;3227;42.654;23.360;2022-08-03T05:35:44;94571.78;;;29.45;38.39
6389;BME280;3227;42.654;23.360;2022-08-03T05:38:12;94539.06;;;29.59;37.46
6389;BME280;3227;42.654;23.360;2022-08-03T05:40:39;94571.19;;;30.00;37.25
6389;BME280;3227;42.654;23.360;2022-08-03T05:43:06;94576.81;;;30.31;37.57
6389;BME280;3227;42.654;23.360;2022-08-03T05:45:32;94572.78;;;30.60;36.90
6389;BME280;3227;42.654;23.360;2022-08-03T05:47:59;94577.34;;;30.91;36.20
6389;BME280;3227;42.654;23.360;2022-08-03T05:50:26;94582.91;;;31.11;35.40
6389;BME280;3227;42.654;23.360;2022-08-03T05:52:54;94563.28;;;31.13;34.79
6389;BME280;3227;42.654;23.360;2022-08-03T05:55:24;94577.09;;;31.28;34.51
6389;BME280;3227;42.654;23.360;2022-08-03T05:57:51;94586.00;;;31.27;35.08
6389;BME280;3227;42.654;23.360;2022-08-03T06:00:18;94580.66;;;31.38;34.83
6389;BME280;3227;42.654;23.360;2022-08-03T06:02:45;94587.41;;;31.42;34.80
6389;BME280;3227;42.654;23.360;2022-08-03T06:05:11;94588.16;;;31.33;34.83
6389;BME280;3227;42.654;23.360;2022-08-03T06:07:38;94586.00;;;31.27;35.00
6389;BME280;3227;42.654;23.360;2022-08-03T06:10:06;94586.63;;;31.19;35.54
6389;BME280;3227;42.654;23.360;2022-08-03T06:12:34;94578.06;;;30.93;35.87
6389;BME280;3227;42.654;23.360;2022-08-03T06:15:02;94579.28;;;30.67;35.74
6389;BME280;3227;42.654;23.360;2022-08-03T06:17:29;94561.63;;;30.21;36.29
6389;BME280;3227;42.654;23.360;2022-08-03T06:19:56;94585.16;;;30.13;36.99
6389;BME280;3227;42.654;23.360;2022-08-03T06:22:23;94589.09;;;30.08;37.48
6389;BME280;3227;42.654;23.360;2022-08-03T06:24:49;94592.88;;;29.93;37.88
6389;BME280;3227;42.654;23.360;2022-08-03T06:27:16;94587.38;;;29.72;38.42
6389;BME280;3227;42.654;23.360;2022-08-03T06:29:45;94580.81;;;29.54;38.45
6389;BME280;3227;42.654;23.360;2022-08-03T06:32:11;94587.50;;;29.46;38.78
6389;BME280;3227;42.654;23.360;2022-08-03T06:34:38;94585.31;;;29.64;38.54
6389;BME280;3227;42.654;23.360;2022-08-03T06:37:05;94581.59;;;29.67;38.65
6389;BME280;3227;42.654;23.360;2022-08-03T06:39:32;94585.19;;;29.66;38.68
6389;BME280;3227;42.654;23.360;2022-08-03T06:41:58;94583.81;;;29.84;38.30
6389;BME280;3227;42.654;23.360;2022-08-03T06:44:25;94580.78;;;30.01;38.26
6389;BME280;3227;42.654;23.360;2022-08-03T06:46:53;94582.94;;;29.96;38.15
6389;BME280;3227;42.654;23.360;2022-08-03T06:49:20;94578.63;;;30.06;38.11
6389;BME280;3227;42.654;23.360;2022-08-03T06:51:47;94561.34;;;30.02;37.74
6389;BME280;3227;42.654;23.360;2022-08-03T06:54:16;94576.16;;;29.92;37.79
6389;BME280;3227;42.654;23.360;2022-08-03T06:56:43;94573.66;;;29.67;39.09
6389;BME280;3227;42.654;23.360;2022-08-03T06:59:10;94577.44;;;29.51;38.70
6389;BME280;3227;42.654;23.360;2022-08-03T07:01:37;94573.66;;;29.43;38.89
6389;BME280;3227;42.654;23.360;2022-08-03T07:04:05;94571.91;;;29.31;40.30
6389;BME280;3227;42.654;23.360;2022-08-03T07:06:31;94576.94;;;29.46;39.93
6389;BME280;3227;42.654;23.360;2022-08-03T07:08:58;94568.09;;;29.59;38.80
6389;BME280;3227;42.654;23.360;2022-08-03T07:11:25;94579.06;;;29.65;39.22
6389;BME280;3227;42.654;23.360;2022-08-03T07:13:53;94577.41;;;29.64;38.19
6389;BME280;3227;42.654;23.360;2022-08-03T07:16:21;94542.84;;;29.43;38.60
6389;BME280;3227;42.654;23.360;2022-08-03T07:18:47;94576.09;;;29.70;39.31
6389;BME280;3227;42.654;23.360;2022-08-03T07:21:15;94581.31;;;29.59;38.63
6389;BME280;3227;42.654;23.360;2022-08-03T07:23:42;94571.78;;;29.45;39.40
6389;BME280;3227;42.654;23.360;2022-08-03T07:26:09;94574.31;;;29.34;40.41
6389;BME280;3227;42.654;23.360;2022-08-03T07:28:36;94582.81;;;29.50;39.64
6389;BME280;3227;42.654;23.360;2022-08-03T07:31:02;94581.47;;;29.44;39.89
6389;BME280;3227;42.654;23.360;2022-08-03T07:33:29;94579.34;;;29.49;40.15
6389;BME280;3227;42.654;23.360;2022-08-03T07:35:56;94578.72;;;29.33;39.18
6389;BME280;3227;42.654;23.360;2022-08-03T07:38:24;94578.41;;;29.14;39.66
6389;BME280;3227;42.654;23.360;2022-08-03T07:40:52;94580.06;;;28.79;40.56
6389;BME280;3227;42.654;23.360;2022-08-03T07:43:19;94583.28;;;28.69;39.80
6389;BME280;3227;42.654;23.360;2022-08-03T07:45:46;94576.13;;;28.71;40.13
6389;BME280;3227;42.654;23.360;2022-08-03T07:48:12;94579.72;;;28.96;40.00
6389;BME280;3227;42.654;23.360;2022-08-03T07:50:39;94585.38;;;29.15;39.96
6389;BME280;3227;42.654;23.360;2022-08-03T07:53:06;94578.13;;;29.30;38.91
6389;BME280;3227;42.654;23.360;2022-08-03T07:55:34;94584.38;;;29.29;38.47
6389;BME280;3227;42.654;23.360;2022-08-03T07:58:03;94588.78;;;28.92;38.53
6389;BME280;3227;42.654;23.360;2022-08-03T08:00:30;94556.66;;;28.49;39.56
6389;BME280;3227;42.654;23.360;2022-08-03T08:02:57;94566.22;;;28.62;39.61
6389;BME280;3227;42.654;23.360;2022-08-03T08:05:24;94576.56;;;28.91;40.09
6389;BME280;3227;42.654;23.360;2022-08-03T08:07:51;94578.75;;;28.97;38.42
6389;BME280;3227;42.654;23.360;2022-08-03T08:10:18;94548.19;;;28.56;39.11
6389;BME280;3227;42.654;23.360;2022-08-03T08:12:46;94583.94;;;28.98;39.94
6389;BME280;3227;42.654;23.360;2022-08-03T08:15:13;94588.06;;;29.26;38.03
6389;BME280;3227;42.654;23.360;2022-08-03T08:17:41;94587.75;;;29.31;36.84
6389;BME280;3227;42.654;23.360;2022-08-03T08:20:09;94594.69;;;28.95;37.64
6389;BME280;3227;42.654;23.360;2022-08-03T08:22:37;94582.66;;;28.91;38.55
6389;BME280;3227;42.654;23.360;2022-08-03T08:25:04;94579.00;;;29.18;38.81
6389;BME280;3227;42.654;23.360;2022-08-03T08:27:31;94590.13;;;29.46;36.66
6389;BME280;3227;42.654;23.360;2022-08-03T08:30:03;94584.63;;;29.49;36.79
6389;BME280;3227;42.654;23.360;2022-08-03T08:32:30;94587.78;;;29.55;36.18
6389;BME280;3227;42.654;23.360;2022-08-03T08:34:57;94585.63;;;29.36;36.32
6389;BME280;3227;42.654;23.360;2022-08-03T08:37:24;94555.34;;;29.16;36.99
6389;BME280;3227;42.654;23.360;2022-08-03T08:39:50;94584.88;;;29.46;37.03
6389;BME280;3227;42.654;23.360;2022-08-03T08:42:17;94584.34;;;29.65;37.62
6389;BME280;3227;42.654;23.360;2022-08-03T08:44:44;94582.59;;;29.77;36.47
6389;BME280;3227;42.654;23.360;2022-08-03T08:47:13;94581.84;;;29.64;36.56
6389;BME280;3227;42.654;23.360;2022-08-03T08:49:40;94554.44;;;29.41;35.79
6389;BME280;3227;42.654;23.360;2022-08-03T08:52:07;94576.47;;;29.52;36.39
6389;BME280;3227;42.654;23.360;2022-08-03T08:54:35;94577.16;;;29.67;36.16
6389;BME280;3227;42.654;23.360;2022-08-03T08:57:06;94578.44;;;29.85;35.52
6389;BME280;3227;42.654;23.360;2022-08-03T08:59:35;94572.88;;;29.77;36.08
6389;BME280;3227;42.654;23.360;2022-08-03T09:02:02;94571.13;;;29.89;35.21
6389;BME280;3227;42.654;23.360;2022-08-03T09:04:31;94567.47;;;30.03;34.87
6389;BME280;3227;42.654;23.360;2022-08-03T09:06:58;94562.31;;;30.01;35.21
6389;BME280;3227;42.654;23.360;2022-08-03T09:09:25;94571.09;;;29.54;35.11
6389;BME280;3227;42.654;23.360;2022-08-03T09:11:52;94570.28;;;29.41;35.75
6389;BME280;3227;42.654;23.360;2022-08-03T09:14:19;94573.72;;;29.18;36.02
6389;BME280;3227;42.654;23.360;2022-08-03T09:16:55;94566.66;;;28.82;36.60
6389;BME280;3227;42.654;23.360;2022-08-03T09:19:24;94564.22;;;28.53;37.12
6389;BME280;3227;42.654;23.360;2022-08-03T09:24:55;94569.41;;;29.53;37.00
6389;BME280;3227;42.654;23.360;2022-08-03T09:27:23;94566.25;;;29.96;35.61
6389;BME280;3227;42.654;23.360;2022-08-03T09:29:53;94558.16;;;30.32;34.92
6389;BME280;3227;42.654;23.360;2022-08-03T09:32:21;94557.97;;;30.57;34.51
6389;BME280;3227;42.654;23.360;2022-08-03T09:34:49;94552.09;;;30.54;33.68
6389;BME280;3227;42.654;23.360;2022-08-03T09:37:17;94569.06;;;30.16;32.31
6389;BME280;3227;42.654;23.360;2022-08-03T09:39:45;94566.19;;;29.61;33.41
6389;BME280;3227;42.654;23.360;2022-08-03T09:42:14;94571.09;;;29.54;33.84
6389;BME280;3227;42.654;23.360;2022-08-03T09:44:43;94570.06;;;29.68;34.31
6389;BME280;3227;42.654;23.360;2022-08-03T09:47:11;94572.31;;;29.85;34.02
6389;BME280;3227;42.654;23.360;2022-08-03T09:49:39;94564.56;;;29.95;33.99
6389;BME280;3227;42.654;23.360;2022-08-03T09:52:15;94565.31;;;30.08;33.98
6389;BME280;3227;42.654;23.360;2022-08-03T09:54:43;94500.66;;;29.55;33.75
6389;BME280;3227;42.654;23.360;2022-08-03T09:57:21;94564.50;;;29.60;34.33
6389;BME280;3227;42.654;23.360;2022-08-03T09:59:49;94508.69;;;29.53;34.28
6389;BME280;3227;42.654;23.360;2022-08-03T10:02:20;94549.75;;;29.92;33.80
6389;BME280;3227;42.654;23.360;2022-08-03T10:04:49;94549.44;;;29.97;34.00
6389;BME280;3227;42.654;23.360;2022-08-03T10:07:17;94551.41;;;30.06;34.25
6389;BME280;3227;42.654;23.360;2022-08-03T10:09:53;94545.19;;;30.29;33.70
6389;BME280;3227;42.654;23.360;2022-08-03T10:12:22;94549.03;;;30.36;33.21
6389;BME280;3227;42.654;23.360;2022-08-03T10:14:49;94507.59;;;29.90;32.40
6389;BME280;3227;42.654;23.360;2022-08-03T10:17:16;94512.00;;;29.79;33.47
6389;BME280;3227;42.654;23.360;2022-08-03T10:19:43;94544.63;;;29.43;33.70
6389;BME280;3227;42.654;23.360;2022-08-03T10:22:12;94543.56;;;29.09;34.65
6389;BME280;3227;42.654;23.360;2022-08-03T10:24:52;94532.13;;;29.21;35.15
6389;BME280;3227;42.654;23.360;2022-08-03T10:27:23;94536.78;;;29.18;34.65
6389;BME280;3227;42.654;23.360;2022-08-03T10:29:51;94541.47;;;29.14;34.43
6389;BME280;3227;42.654;23.360;2022-08-03T10:32:23;94542.81;;;28.58;35.39
6389;BME280;3227;42.654;23.360;2022-08-03T10:35:01;94535.66;;;28.47;35.84
6389;BME280;3227;42.654;23.360;2022-08-03T10:37:31;94530.91;;;28.52;36.16
6389;BME280;3227;42.654;23.360;2022-08-03T10:39:59;94532.69;;;28.64;36.09
6389;BME280;3227;42.654;23.360;2022-08-03T10:42:29;94530.88;;;28.90;35.32
6389;BME280;3227;42.654;23.360;2022-08-03T10:45:02;94533.28;;;28.93;34.54
6389;BME280;3227;42.654;23.360;2022-08-03T10:47:30;94525.94;;;28.73;35.40
6389;BME280;3227;42.654;23.360;2022-08-03T10:49:58;94525.28;;;28.69;35.71
6389;BME280;3227;42.654;23.360;2022-08-03T10:52:26;94526.13;;;28.83;35.77
6389;BME280;3227;42.654;23.360;2022-08-03T10:54:53;94531.63;;;28.80;34.86
6389;BME280;3227;42.654;23.360;2022-08-03T10:57:50;94515.56;;;28.83;35.32
6389;BME280;3227;42.654;23.360;2022-08-03T11:00:19;94529.97;;;28.41;36.13
6389;BME280;3227;42.654;23.360;2022-08-03T11:03:08;94515.53;;;28.46;36.29
6389;BME280;3227;42.654;23.360;2022-08-03T11:05:37;94531.00;;;28.63;36.26
6389;BME280;3227;42.654;23.360;2022-08-03T11:08:31;94519.56;;;28.75;35.98
6389;BME280;3227;42.654;23.360;2022-08-03T11:11:02;94513.28;;;28.78;35.99
6389;BME280;3227;42.654;23.360;2022-08-03T11:14:04;94515.69;;;28.68;35.01
6389;BME280;3227;42.654;23.360;2022-08-03T11:16:34;94508.19;;;28.88;35.33
6389;BME280;3227;42.654;23.360;2022-08-03T11:19:03;94509.53;;;29.17;35.14
6389;BME280;3227;42.654;23.360;2022-08-03T11:21:55;94504.56;;;29.49;35.39
6389;BME280;3227;42.654;23.360;2022-08-03T11:27:28;94498.16;;;29.64;34.70
6389;BME280;3227;42.654;23.360;2022-08-03T11:29:58;94502.28;;;29.44;34.71
6389;BME280;3227;42.654;23.360;2022-08-03T11:32:50;94496.41;;;29.28;34.24
6389;BME280;3227;42.654;23.360;2022-08-03T11:35:20;94485.97;;;29.27;33.77
6389;BME280;3227;42.654;23.360;2022-08-03T11:38:09;94491.53;;;29.59;33.25
6389;BME280;3227;42.654;23.360;2022-08-03T11:40:41;94477.78;;;29.42;33.66
6389;BME280;3227;42.654;23.360;2022-08-03T11:46:13;94471.50;;;29.67;33.45
6389;BME280;3227;42.654;23.360;2022-08-03T11:48:44;94472.34;;;30.03;33.76
6389;BME280;3227;42.654;23.360;2022-08-03T11:51:22;94474.66;;;30.30;33.47
6389;BME280;3227;42.654;23.360;2022-08-03T11:53:53;94474.31;;;30.45;33.64
6389;BME280;3227;42.654;23.360;2022-08-03T11:56:20;94475.13;;;30.23;33.68
6389;BME280;3227;42.654;23.360;2022-08-03T11:58:47;94477.78;;;30.12;34.25
6389;BME280;3227;42.654;23.360;2022-08-03T12:01:18;94471.50;;;30.24;34.27
6389;BME280;3227;42.654;23.360;2022-08-03T12:03:45;94472.72;;;30.09;33.73
6389;BME280;3227;42.654;23.360;2022-08-03T12:06:14;94477.94;;;29.87;34.33
6389;BME280;3227;42.654;23.360;2022-08-03T12:08:42;94471.75;;;29.64;34.72
6389;BME280;3227;42.654;23.360;2022-08-03T12:11:11;94480.38;;;29.31;35.29
6389;BME280;3227;42.654;23.360;2022-08-03T12:13:40;94476.72;;;29.21;35.63
6389;BME280;3227;42.654;23.360;2022-08-03T12:16:07;94469.56;;;28.87;35.54
6389;BME280;3227;42.654;23.360;2022-08-03T12:18:35;94466.31;;;28.70;36.09
6389;BME280;3227;42.654;23.360;2022-08-03T12:21:04;94464.97;;;28.65;36.67
6389;BME280;3227;42.654;23.360;2022-08-03T12:23:31;94462.81;;;28.83;36.23
6389;BME280;3227;42.654;23.360;2022-08-03T12:26:01;94389.94;;;28.45;35.34
6389;BME280;3227;42.654;23.360;2022-08-03T12:28:28;94447.34;;;28.78;34.54
6389;BME280;3227;42.654;23.360;2022-08-03T12:30:55;94458.75;;;29.02;34.84
6389;BME280;3227;42.654;23.360;2022-08-03T12:33:26;94464.97;;;29.25;34.10
6389;BME280;3227;42.654;23.360;2022-08-03T12:36:06;94459.19;;;28.96;35.72
6389;BME280;3227;42.654;23.360;2022-08-03T12:38:35;94457.28;;;29.22;35.96
6389;BME280;3227;42.654;23.360;2022-08-03T12:41:04;94457.97;;;29.37;35.58
6389;BME280;3227;42.654;23.360;2022-08-03T12:43:33;94460.72;;;29.35;34.93
6389;BME280;3227;42.654;23.360;2022-08-03T12:46:13;94456.88;;;29.63;34.38
6389;BME280;3227;42.654;23.360;2022-08-03T12:49:04;94447.47;;;29.94;34.26
6389;BME280;3227;42.654;23.360;2022-08-03T12:51:34;94449.72;;;29.87;32.91
6389;BME280;3227;42.654;23.360;2022-08-03T12:54:03;94430.22;;;29.66;32.38
6389;BME280;3227;42.654;23.360;2022-08-03T12:56:30;94457.28;;;29.81;32.48
6389;BME280;3227;42.654;23.360;2022-08-03T12:58:56;94435.00;;;29.96;32.68
6389;BME280;3227;42.654;23.360;2022-08-03T13:01:23;94437.88;;;30.26;32.56
6389;BME280;3227;42.654;23.360;2022-08-03T13:03:52;94434.75;;;30.44;32.57
6389;BME280;3227;42.654;23.360;2022-08-03T13:06:20;94444.53;;;30.54;33.21
6389;BME280;3227;42.654;23.360;2022-08-03T13:08:49;94434.97;;;30.41;33.52
6389;BME280;3227;42.654;23.360;2022-08-03T13:11:27;94422.16;;;30.14;33.43
6389;BME280;3227;42.654;23.360;2022-08-03T13:13:54;94451.22;;;30.03;34.09
6389;BME280;3227;42.654;23.360;2022-08-03T13:16:21;94430.00;;;29.92;34.50
6389;BME280;3227;42.654;23.360;2022-08-03T13:18:50;94432.66;;;29.80;34.54
6389;BME280;3227;42.654;23.360;2022-08-03T13:21:18;94442.31;;;29.58;34.79
6389;BME280;3227;42.654;23.360;2022-08-03T13:23:45;94404.38;;;28.89;35.33
6389;BME280;3227;42.654;23.360;2022-08-03T13:26:14;94440.66;;;29.09;35.64
6389;BME280;3227;42.654;23.360;2022-08-03T13:28:41;94411.59;;;28.74;35.95
6389;BME280;3227;42.654;23.360;2022-08-03T13:31:08;94447.13;;;28.81;36.54
6389;BME280;3227;42.654;23.360;2022-08-03T13:33:35;94454.81;;;28.84;36.60